Norfolk, Virginia
Current Conditions -  °F | °C
As of 9:51 PM on Saturday 24 Jan 2015 (Local Time) from KORF Reporting Station
Clear Clear  
Wind Chill: 36°   Ceiling: Unl
Heat Index: 41°   Visibility: 10mi
Dew Point: 31°   Wind: 7mph
Humidity: 67%   Direction: 250°WSW
Pressure: 29.68"   Gusts: NA
Location:  36.85°N, 76.28°W
Report Text: KORF 250251Z AUTO 25006KT 10SM CLR 05/M01 A2968 RMK AO2 SLP049 T00501006 53021 TSNO
Loading
Personal Weather Stations






























Interactive Weather Map New forecast layout! Learn more

10-Day Weather Forecast

Advertisements
Track Severe Weather on mobile